Time;durP1;ratioP1;P1;durP2;ratioP2;P2;SDS_P1;SDS_P2;PMS_P1;PMS_P2;Temp;Humidity;BMP_temperature;BMP_pressure;BME280_temperature;BME280_humidity;BME280_pressure;Samples;Min_cycle;Max_cycle;Signal;HPM_P1;HPM_P2
2023/01/16 00:01:04;;;;;;;3.50;2.40;;;;;;;3.28;100.00;99298.38;7392805;19;20408;-64
2023/01/16 00:03:33;;;;;;;3.93;2.17;;;;;;;3.29;100.00;99299.25;7395911;19;20403;-62
2023/01/16 00:06:06;;;;;;;11.80;2.53;;;;;;;3.30;100.00;99301.00;7396469;19;20446;-61
2023/01/16 00:08:35;;;;;;;5.03;3.13;;;;;;;3.35;100.00;99304.66;7396685;19;20415;-60
2023/01/16 00:11:05;;;;;;;4.53;2.37;;;;;;;3.34;100.00;99302.91;7399626;19;20408;-61
2023/01/16 00:13:34;;;;;;;6.23;3.50;;;;;;;3.35;100.00;99302.09;7395154;19;20423;-62
2023/01/16 00:16:04;;;;;;;8.33;2.77;;;;;;;3.35;100.00;99310.59;7396690;19;20447;-61
2023/01/16 00:18:33;;;;;;;4.20;2.00;;;;;;;3.37;100.00;99316.69;7396016;19;20482;-63
2023/01/16 00:21:05;;;;;;;5.67;3.33;;;;;;;3.39;100.00;99309.09;7397976;19;20415;-63
2023/01/16 00:23:35;;;;;;;8.53;2.87;;;;;;;3.42;100.00;99308.34;7392627;19;20467;-61
2023/01/16 00:26:08;;;;;;;2.30;1.30;;;;;;;3.43;100.00;99315.22;7394942;19;20431;-61
2023/01/16 00:28:37;;;;;;;5.03;2.20;;;;;;;3.44;100.00;99305.06;7394572;19;20403;-61
2023/01/16 00:31:07;;;;;;;4.03;2.57;;;;;;;3.43;100.00;99303.34;7394523;19;20493;-62
2023/01/16 00:33:37;;;;;;;10.83;3.90;;;;;;;3.47;100.00;99289.94;7393529;19;20403;-62
2023/01/16 00:36:10;;;;;;;8.57;4.13;;;;;;;3.45;100.00;99285.56;7397415;19;20451;-61
2023/01/16 00:38:40;;;;;;;13.80;4.37;;;;;;;3.44;100.00;99279.56;7397193;19;20412;-62
2023/01/16 00:41:10;;;;;;;4.60;2.70;;;;;;;3.43;100.00;99282.06;7398422;19;20392;-61
2023/01/16 00:43:39;;;;;;;11.10;6.17;;;;;;;3.47;100.00;99281.41;7395646;19;20410;-60
2023/01/16 00:46:08;;;;;;;9.80;5.33;;;;;;;3.48;100.00;99268.72;7395881;19;20447;-61
2023/01/16 00:48:38;;;;;;;9.97;6.10;;;;;;;3.49;100.00;99267.06;7394423;19;20387;-62
2023/01/16 00:51:10;;;;;;;11.23;4.60;;;;;;;3.49;100.00;99267.06;7398091;19;20379;-62
2023/01/16 00:53:39;;;;;;;9.50;4.70;;;;;;;3.46;100.00;99259.25;7395653;19;20423;-60
2023/01/16 00:56:09;;;;;;;11.20;4.37;;;;;;;3.49;100.00;99257.72;7395702;19;20454;-63
2023/01/16 00:58:39;;;;;;;12.23;6.30;;;;;;;3.48;100.00;99255.97;7395847;19;20419;-62
2023/01/16 01:01:08;;;;;;;9.83;5.43;;;;;;;3.48;100.00;99250.00;7398176;19;20419;-61
2023/01/16 01:03:38;;;;;;;8.00;4.10;;;;;;;3.48;100.00;99237.22;7395369;19;20402;-62
2023/01/16 01:06:11;;;;;;;8.40;4.07;;;;;;;3.47;100.00;99250.78;7396024;19;20454;-61
2023/01/16 01:08:40;;;;;;;10.87;6.90;;;;;;;3.50;100.00;99245.84;7395803;19;20743;-60
2023/01/16 01:11:11;;;;;;;12.57;5.87;;;;;;;3.51;100.00;99250.16;7397888;19;20418;-63
2023/01/16 01:13:41;;;;;;;10.57;6.00;;;;;;;3.50;100.00;99243.31;7392659;19;20415;-63
2023/01/16 01:16:11;;;;;;;7.37;4.23;;;;;;;3.49;100.00;99251.75;7395037;19;20439;-63
2023/01/16 01:18:41;;;;;;;7.90;4.70;;;;;;;3.51;100.00;99240.84;7395474;19;20415;-60
2023/01/16 01:21:13;;;;;;;8.47;4.20;;;;;;;3.52;100.00;99241.69;7397486;19;20744;-64
2023/01/16 01:23:42;;;;;;;7.53;3.90;;;;;;;3.53;100.00;99233.22;7393539;19;20396;-63
2023/01/16 01:26:13;;;;;;;11.03;2.87;;;;;;;3.52;100.00;99234.03;7396116;19;20414;-63
2023/01/16 01:28:43;;;;;;;5.37;3.70;;;;;;;3.53;100.00;99238.31;7395209;19;20419;-61
2023/01/16 01:31:14;;;;;;;8.40;3.90;;;;;;;3.54;100.00;99234.97;7397189;19;20788;-61
2023/01/16 01:33:44;;;;;;;7.93;3.70;;;;;;;3.55;100.00;99241.84;7393414;19;20407;-62
2023/01/16 01:36:16;;;;;;;9.40;3.50;;;;;;;3.57;100.00;99244.44;7395199;19;20447;-62
2023/01/16 01:38:46;;;;;;;4.60;2.80;;;;;;;3.56;100.00;99243.59;7394101;19;20428;-61
2023/01/16 01:41:16;;;;;;;13.53;5.27;;;;;;;3.62;100.00;99255.72;7396299;19;20403;-62
2023/01/16 01:43:48;;;;;;;6.70;2.90;;;;;;;3.63;100.00;99257.47;7393097;19;20468;-62
2023/01/16 01:46:23;;;;;;;2.73;1.53;;;;;;;3.59;100.00;99264.13;7394606;19;20457;-60
2023/01/16 01:48:54;;;;;;;5.77;1.77;;;;;;;3.58;100.00;99264.06;7393264;19;20421;-62
2023/01/16 01:51:29;;;;;;;5.87;2.43;;;;;;;3.58;100.00;99262.38;7396308;19;20750;-61
2023/01/16 01:54:00;;;;;;;4.03;2.00;;;;;;;3.59;100.00;99274.31;7394113;19;20453;-61
2023/01/16 01:56:32;;;;;;;4.80;2.40;;;;;;;3.59;100.00;99269.22;7396201;19;20429;-59
2023/01/16 01:59:08;;;;;;;6.53;2.07;;;;;;;3.57;100.00;99265.72;7391589;19;20447;-62
2023/01/16 02:01:38;;;;;;;3.70;2.27;;;;;;;3.58;100.00;99264.91;7396172;19;20402;-62
2023/01/16 02:04:12;;;;;;;7.50;3.30;;;;;;;3.59;100.00;99266.66;7392068;19;20443;-61
2023/01/16 02:06:48;;;;;;;7.43;2.80;;;;;;;3.57;100.00;99255.53;7395747;19;20404;-60
2023/01/16 02:09:18;;;;;;;6.83;2.40;;;;;;;3.58;100.00;99248.75;7392344;19;20443;-62
2023/01/16 02:11:53;;;;;;;4.73;2.37;;;;;;;3.55;100.00;99246.06;7396705;19;20400;-63
2023/01/16 02:14:22;;;;;;;8.03;3.40;;;;;;;3.56;100.00;99247.78;7392241;19;20414;-62
2023/01/16 02:19:45;;;;;;;6.63;3.33;;;;;;;3.56;100.00;99232.50;7389406;19;20453;-62
2023/01/16 02:22:41;;;;;;;11.10;3.60;;;;;;;3.55;100.00;99226.53;7392031;19;20430;-61
2023/01/16 02:25:37;;;;;;;8.87;3.50;;;;;;;3.58;100.00;99219.00;7386654;19;20442;-62
2023/01/16 02:28:41;;;;;;;7.53;3.30;;;;;;;3.53;100.00;99215.38;7392281;19;20411;-62
2023/01/16 02:31:27;;;;;;;6.23;3.47;;;;;;;3.53;100.00;99212.81;7391717;19;20438;-62
2023/01/16 02:34:07;;;;;;;9.10;3.47;;;;;;;3.52;100.00;99203.44;7389414;19;20415;-62
2023/01/16 02:36:42;;;;;;;7.87;3.53;;;;;;;3.51;100.00;99204.25;7392985;19;21618;-62
2023/01/16 02:39:20;;;;;;;9.80;3.50;;;;;;;3.52;100.00;99200.88;7389546;19;20445;-62
2023/01/16 02:41:53;;;;;;;6.63;3.10;;;;;;;3.50;100.00;99200.81;7392213;19;20390;-61
2023/01/16 02:44:28;;;;;;;3.80;2.73;;;;;;;3.54;100.00;99195.84;7388894;19;20407;-62
2023/01/16 02:47:17;;;;;;;5.80;2.60;;;;;;;3.51;100.00;99189.81;7392083;19;20414;-61
2023/01/16 02:49:51;;;;;;;7.87;3.13;;;;;;;3.50;100.00;99182.09;7387085;19;20453;-63
2023/01/16 02:52:25;;;;;;;9.60;3.13;;;;;;;3.50;100.00;99171.91;7393140;19;20395;-61
2023/01/16 02:54:58;;;;;;;5.83;2.63;;;;;;;3.54;100.00;99167.81;7388261;19;20447;-62
2023/01/16 02:57:32;;;;;;;5.33;2.30;;;;;;;3.50;100.00;99172.75;7390773;19;20778;-62
2023/01/16 03:00:02;;;;;;;8.17;2.63;;;;;;;3.47;100.00;99161.53;7390617;19;20443;-62
2023/01/16 03:02:34;;;;;;;7.03;2.80;;;;;;;3.44;100.00;99156.31;7394227;19;20396;-63
2023/01/16 03:05:04;;;;;;;6.80;2.40;;;;;;;3.41;100.00;99157.06;7389263;19;20439;-62
2023/01/16 03:07:48;;;;;;;5.40;2.53;;;;;;;3.43;100.00;99146.94;7393328;19;20402;-62
2023/01/16 03:10:29;;;;;;;5.77;2.40;;;;;;;3.32;100.00;99147.31;7389614;19;20435;-62
2023/01/16 03:13:07;;;;;;;17.60;3.33;;;;;;;3.41;100.00;99135.75;7393046;19;20783;-62
2023/01/16 03:15:43;;;;;;;6.03;2.00;;;;;;;3.35;100.00;99129.59;7388907;19;21064;-62
2023/01/16 03:18:26;;;;;;;4.97;2.53;;;;;;;3.41;100.00;99128.13;7393749;19;20400;-63
2023/01/16 03:21:01;;;;;;;7.57;2.40;;;;;;;3.34;100.00;99125.28;7392943;19;20439;-62
2023/01/16 03:23:36;;;;;;;5.43;2.00;;;;;;;3.44;100.00;99115.53;7391128;19;20426;-63
2023/01/16 03:26:08;;;;;;;5.90;2.10;;;;;;;3.44;100.00;99113.81;7391385;19;20447;-63
2023/01/16 03:28:44;;;;;;;4.20;1.90;;;;;;;3.43;100.00;99106.97;7391806;19;20423;-61
2023/01/16 03:31:16;;;;;;;4.63;2.23;;;;;;;3.40;100.00;99109.41;7393376;19;20403;-62
2023/01/16 03:33:58;;;;;;;4.33;1.57;;;;;;;3.41;100.00;99103.50;7389065;19;20507;-61
2023/01/16 03:36:33;;;;;;;5.60;2.03;;;;;;;3.41;100.00;99097.50;7392389;19;20433;-62
2023/01/16 03:39:03;;;;;;;5.03;2.23;;;;;;;3.40;100.00;99093.22;7397219;19;20406;-61
2023/01/16 03:41:34;;;;;;;5.80;1.93;;;;;;;3.38;100.00;99083.84;7401415;19;20408;-62
2023/01/16 03:44:07;;;;;;;4.37;2.00;;;;;;;3.43;100.00;99078.94;7396161;19;20402;-61
2023/01/16 03:46:40;;;;;;;10.60;1.87;;;;;;;3.45;100.00;99081.56;7400632;19;20442;-62
2023/01/16 03:49:14;;;;;;;7.40;1.93;;;;;;;3.45;100.00;99069.69;7395670;19;20410;-62
2023/01/16 03:51:47;;;;;;;10.03;2.40;;;;;;;3.44;100.00;99070.47;7399120;19;20404;-62
2023/01/16 03:54:26;;;;;;;5.53;1.90;;;;;;;3.51;100.00;99066.53;7394862;19;20486;-62
2023/01/16 03:57:02;;;;;;;6.73;2.33;;;;;;;3.47;100.00;99062.09;7399757;19;20423;-63
2023/01/16 03:59:31;;;;;;;9.93;3.20;;;;;;;3.42;100.00;99058.47;7396311;19;20958;-63
2023/01/16 04:02:05;;;;;;;6.33;2.57;;;;;;;3.40;100.00;99054.97;7399218;19;20406;-62
2023/01/16 04:04:42;;;;;;;3.60;1.67;;;;;;;3.32;100.00;99055.53;7396571;19;20442;-63
2023/01/16 04:07:15;;;;;;;4.90;1.73;;;;;;;3.36;100.00;99047.22;7398675;19;20411;-63
2023/01/16 04:09:48;;;;;;;5.40;1.63;;;;;;;3.25;100.00;99035.69;7394805;19;20446;-62
2023/01/16 04:12:20;;;;;;;3.73;1.70;;;;;;;3.18;100.00;99041.31;7398945;19;20407;-61
2023/01/16 04:14:51;;;;;;;6.73;2.03;;;;;;;3.24;100.00;99036.47;7393566;19;20459;-61
2023/01/16 04:17:21;;;;;;;6.00;1.83;;;;;;;3.24;100.00;99032.25;7399907;19;20399;-62
2023/01/16 04:19:53;;;;;;;3.60;1.47;;;;;;;3.19;100.00;99023.50;7393953;19;20435;-62
2023/01/16 04:22:24;;;;;;;4.80;1.90;;;;;;;3.27;100.00;99016.22;7398788;19;20748;-62
2023/01/16 04:24:55;;;;;;;3.63;1.50;;;;;;;3.23;100.00;99014.34;7393288;19;20990;-62
2023/01/16 04:27:25;;;;;;;6.27;1.90;;;;;;;3.36;100.00;99006.41;7398098;19;20431;-62
2023/01/16 04:29:55;;;;;;;7.00;2.07;;;;;;;3.32;100.00;99003.66;7394650;19;20422;-62
2023/01/16 04:32:24;;;;;;;4.10;1.77;;;;;;;3.30;100.00;99001.06;7399301;19;20364;-62
2023/01/16 04:34:56;;;;;;;5.00;1.57;;;;;;;3.33;100.00;99006.28;7393287;19;20466;-61
2023/01/16 04:37:26;;;;;;;8.13;2.30;;;;;;;3.38;100.00;98999.69;7398379;19;20411;-63
2023/01/16 04:39:58;;;;;;;4.93;2.00;;;;;;;3.37;100.00;98995.41;7394087;19;20790;-62
2023/01/16 04:42:28;;;;;;;5.30;3.10;;;;;;;3.37;100.00;98995.41;7398455;19;20442;-63
2023/01/16 04:44:57;;;;;;;8.83;1.47;;;;;;;3.44;100.00;98988.03;7390231;19;20443;-62
2023/01/16 04:47:27;;;;;;;4.13;1.90;;;;;;;3.50;100.00;98978.94;7396845;19;20407;-62
2023/01/16 04:49:59;;;;;;;2.80;1.40;;;;;;;3.47;100.00;98980.47;7391265;19;20435;-62
2023/01/16 04:52:28;;;;;;;4.57;1.63;;;;;;;3.56;100.00;98977.44;7398218;19;20396;-61
2023/01/16 04:54:57;;;;;;;10.50;1.47;;;;;;;3.50;100.00;98984.03;7392336;19;20462;-61
2023/01/16 04:57:27;;;;;;;5.43;1.70;;;;;;;3.53;100.00;98983.28;7398347;19;20406;-62
2023/01/16 04:59:56;;;;;;;3.10;1.10;;;;;;;3.53;100.00;98985.84;7393827;19;20462;-62
2023/01/16 05:02:26;;;;;;;2.73;1.30;;;;;;;3.56;100.00;98988.53;7397890;19;20414;-62
2023/01/16 05:04:55;;;;;;;4.77;1.30;;;;;;;3.55;100.00;98989.34;7392549;19;20465;-61
2023/01/16 05:07:27;;;;;;;7.03;1.23;;;;;;;3.60;100.00;98990.38;7397487;19;20408;-63
2023/01/16 05:09:57;;;;;;;7.43;1.50;;;;;;;3.53;100.00;98988.38;7392581;19;20439;-61
2023/01/16 05:12:26;;;;;;;7.23;2.27;;;;;;;3.54;100.00;98995.22;7397354;19;20414;-62
2023/01/16 05:14:56;;;;;;;8.30;3.37;;;;;;;3.58;100.00;98981.81;7392047;19;20458;-62
2023/01/16 05:17:26;;;;;;;4.73;1.50;;;;;;;3.52;100.00;98976.44;7398353;19;20387;-62
2023/01/16 05:19:55;;;;;;;4.20;1.83;;;;;;;3.54;100.00;98974.81;7392715;19;20418;-63
2023/01/16 05:22:27;;;;;;;4.70;2.30;;;;;;;3.49;100.00;98971.25;7396797;19;20400;-62
2023/01/16 05:24:57;;;;;;;6.47;1.20;;;;;;;3.46;100.00;98971.97;7391855;19;20447;-61
2023/01/16 05:27:26;;;;;;;6.50;1.30;;;;;;;3.53;100.00;98977.34;7397022;19;20399;-62
2023/01/16 05:29:56;;;;;;;2.93;1.37;;;;;;;3.53;100.00;98973.09;7392256;19;20439;-61
2023/01/16 05:32:25;;;;;;;7.97;1.83;;;;;;;3.51;100.00;98974.72;7396666;19;20404;-62
2023/01/16 05:34:54;;;;;;;5.40;2.27;;;;;;;3.60;100.00;98969.97;7391098;19;20455;-62
2023/01/16 05:37:24;;;;;;;4.47;1.20;;;;;;;3.63;100.00;98959.91;7397558;19;20411;-62
2023/01/16 05:39:57;;;;;;;2.70;1.20;;;;;;;3.58;100.00;98961.41;7391687;19;20470;-61
2023/01/16 05:42:26;;;;;;;3.60;1.30;;;;;;;3.60;100.00;98966.56;7397008;19;21069;-62
2023/01/16 05:44:55;;;;;;;8.30;1.37;;;;;;;3.65;100.00;98963.41;7391170;19;20467;-62
2023/01/16 05:47:25;;;;;;;3.40;1.10;;;;;;;3.62;100.00;98963.28;7396158;19;20403;-61
2023/01/16 05:49:57;;;;;;;7.57;1.20;;;;;;;3.62;100.00;98967.50;7391470;19;20435;-63
2023/01/16 05:52:27;;;;;;;8.37;1.10;;;;;;;3.56;100.00;98963.03;7396181;19;20411;-62
2023/01/16 05:54:59;;;;;;;7.73;1.30;;;;;;;3.58;100.00;98966.50;7389753;19;20445;-63
2023/01/16 05:57:31;;;;;;;5.10;1.53;;;;;;;3.65;100.00;98954.88;7396769;19;20388;-62
2023/01/16 06:00:00;;;;;;;9.10;1.97;;;;;;;3.76;100.00;98960.41;7390523;19;20450;-61
2023/01/16 06:02:30;;;;;;;3.30;1.10;;;;;;;3.57;100.00;98958.78;7396392;19;20400;-62
2023/01/16 06:04:59;;;;;;;3.50;0.97;;;;;;;3.64;100.00;98951.44;7389936;19;20455;-65
2023/01/16 06:07:29;;;;;;;7.20;1.80;;;;;;;3.73;100.00;98945.84;7396218;19;20423;-62
2023/01/16 06:10:01;;;;;;;5.17;1.30;;;;;;;3.49;100.00;98950.84;7390889;19;20443;-62
2023/01/16 06:12:31;;;;;;;5.80;1.20;;;;;;;3.60;100.00;98934.28;7395876;19;20391;-62
2023/01/16 06:15:01;;;;;;;4.73;1.30;;;;;;;3.66;100.00;98931.13;7389962;19;20439;-61
2023/01/16 06:17:30;;;;;;;8.03;1.30;;;;;;;3.57;100.00;98930.72;7396224;19;20406;-62
2023/01/16 06:19:59;;;;;;;5.17;1.60;;;;;;;3.75;100.00;98925.50;7390219;19;20430;-62
2023/01/16 06:22:29;;;;;;;3.40;1.20;;;;;;;3.71;100.00;98927.06;7395528;19;20399;-63
2023/01/16 06:25:01;;;;;;;6.27;1.80;;;;;;;3.75;100.00;98928.06;7389803;19;20441;-62
2023/01/16 06:27:32;;;;;;;6.00;1.50;;;;;;;3.92;100.00;98914.31;7395624;19;20483;-62
2023/01/16 06:30:01;;;;;;;6.40;1.50;;;;;;;3.73;100.00;98916.91;7390675;19;20438;-63
2023/01/16 06:32:30;;;;;;;5.30;1.33;;;;;;;3.53;100.00;98917.00;7395307;19;20406;-62
2023/01/16 06:35:00;;;;;;;3.00;1.20;;;;;;;3.61;100.00;98920.75;7389149;19;20459;-61
2023/01/16 06:37:29;;;;;;;9.37;1.87;;;;;;;3.61;100.00;98913.09;7395325;19;20403;-62
2023/01/16 06:40:01;;;;;;;3.70;1.50;;;;;;;3.58;100.00;98912.94;7389959;19;20837;-63
2023/01/16 06:42:31;;;;;;;4.47;1.27;;;;;;;3.63;100.00;98908.03;7394473;19;20411;-62
2023/01/16 06:45:00;;;;;;;9.33;2.17;;;;;;;3.61;100.00;98902.88;7388836;19;20451;-63
2023/01/16 06:47:30;;;;;;;7.80;1.63;;;;;;;3.69;100.00;98897.22;7394701;19;20940;-62
2023/01/16 06:50:00;;;;;;;3.20;1.27;;;;;;;3.38;100.00;98901.94;7387618;19;20443;-62
2023/01/16 06:52:29;;;;;;;7.47;2.03;;;;;;;3.48;100.00;98903.16;7394580;19;20439;-62
2023/01/16 06:55:01;;;;;;;6.80;1.47;;;;;;;3.70;100.00;98891.28;7388058;19;20453;-62
2023/01/16 06:57:31;;;;;;;4.60;1.30;;;;;;;3.80;100.00;98885.75;7395027;19;20941;-62
2023/01/16 07:00:01;;;;;;;3.93;1.50;;;;;;;3.53;100.00;98893.19;7389379;19;20857;-61
2023/01/16 07:02:30;;;;;;;3.50;1.60;;;;;;;3.43;100.00;98882.59;7394037;19;20400;-62
2023/01/16 07:04:59;;;;;;;5.40;1.40;;;;;;;3.50;100.00;98876.06;7389063;19;20471;-62
2023/01/16 07:07:29;;;;;;;3.93;1.50;;;;;;;3.56;100.00;98871.22;7394113;19;20403;-62
2023/01/16 07:09:58;;;;;;;6.27;1.57;;;;;;;3.43;100.00;98869.00;7387972;19;20423;-62
2023/01/16 07:12:30;;;;;;;5.83;1.20;;;;;;;3.43;100.00;98863.91;7397907;19;20383;-62
2023/01/16 07:23:17;;;;;;;8.90;1.97;;;;;;;3.77;100.00;98855.00;7400221;19;20918;-62
2023/01/16 07:25:46;;;;;;;2.47;1.27;;;;;;;3.70;100.00;98853.03;7394287;19;20451;-62
2023/01/16 07:28:19;;;;;;;4.57;1.40;;;;;;;3.64;100.00;98841.78;7400569;19;20404;-63
2023/01/16 07:30:50;;;;;;;4.33;1.37;;;;;;;3.71;100.00;98852.22;7397071;19;20415;-62
2023/01/16 07:33:19;;;;;;;3.00;1.20;;;;;;;3.67;100.00;98845.25;7399761;19;20430;-62
2023/01/16 07:35:48;;;;;;;9.10;2.00;;;;;;;3.65;100.00;98842.66;7394997;19;20458;-62
2023/01/16 07:38:18;;;;;;;10.70;1.33;;;;;;;3.53;100.00;98839.63;7400195;19;20438;-62
2023/01/16 07:40:47;;;;;;;4.07;1.30;;;;;;;3.45;100.00;98837.66;7396430;19;20823;-61
2023/01/16 07:43:19;;;;;;;5.73;1.50;;;;;;;3.49;100.00;98838.63;7399795;19;20868;-61
2023/01/16 07:45:52;;;;;;;3.90;1.80;;;;;;;3.63;100.00;98832.38;7394746;19;20443;-63
2023/01/16 07:48:22;;;;;;;10.20;1.50;;;;;;;3.49;100.00;98833.53;7399508;19;20969;-62
2023/01/16 07:50:53;;;;;;;2.83;1.10;;;;;;;3.43;100.00;98834.16;7391983;19;20447;-62
2023/01/16 07:53:23;;;;;;;8.80;1.73;;;;;;;3.44;100.00;98827.38;7399524;19;20499;-62
2023/01/16 07:55:54;;;;;;;2.93;1.10;;;;;;;3.38;100.00;98823.78;7396773;19;20454;-63
2023/01/16 07:58:26;;;;;;;5.40;2.00;;;;;;;3.44;100.00;98815.47;7400161;19;21273;-62
2023/01/16 08:00:57;;;;;;;4.90;1.50;;;;;;;3.44;100.00;98809.53;7398337;19;20443;-62
2023/01/16 08:03:27;;;;;;;4.53;1.60;;;;;;;3.45;100.00;98811.28;7396381;19;20494;-62
2023/01/16 08:06:02;;;;;;;8.33;2.40;;;;;;;4.63;100.00;98795.13;7396712;19;20965;-63
2023/01/16 08:08:31;;;;;;;12.77;5.00;;;;;;;4.81;100.00;98783.78;7397365;19;20403;-62
2023/01/16 08:11:34;;;;;;;9.97;3.93;;;;;;;4.73;100.00;98789.50;7398457;19;20738;-63
2023/01/16 08:13:54;;;;;;;11.73;4.70;;;;;;;4.28;100.00;98797.31;7394043;19;20446;-61
2023/01/16 08:16:24;;;;;;;15.30;6.93;;;;;;;3.99;100.00;98800.56;7396757;19;21039;-63
2023/01/16 08:18:53;;;;;;;10.37;3.80;;;;;;;4.04;100.00;98803.25;7394615;19;20428;-63
2023/01/16 08:21:23;;;;;;;5.83;1.70;;;;;;;3.95;100.00;98798.69;7399305;19;20383;-62
2023/01/16 08:23:52;;;;;;;5.77;2.73;;;;;;;3.77;100.00;98803.97;7389546;19;20411;-64
2023/01/16 08:26:21;;;;;;;6.43;2.00;;;;;;;3.56;100.00;98799.81;7396758;19;20982;-62
2023/01/16 08:28:54;;;;;;;5.57;2.20;;;;;;;3.54;100.00;98805.66;7393558;19;20411;-62
2023/01/16 08:31:24;;;;;;;6.83;2.37;;;;;;;3.54;100.00;98801.41;7399034;19;20403;-63
2023/01/16 08:33:53;;;;;;;6.30;1.63;;;;;;;3.51;100.00;98797.09;7394057;19;20475;-63
2023/01/16 08:36:23;;;;;;;3.97;1.53;;;;;;;3.61;100.00;98793.22;7396408;19;20818;-62
2023/01/16 08:38:52;;;;;;;4.30;1.80;;;;;;;3.66;100.00;98785.72;7394304;19;20422;-61
2023/01/16 08:52:36;;;;;;;4.37;1.23;;;;;;;3.28;100.00;98768.13;7387879;19;20381;-61
2023/01/16 08:55:06;;;;;;;3.40;1.13;;;;;;;3.10;100.00;98764.06;7390902;19;20431;-62
2023/01/16 08:57:36;;;;;;;4.80;1.63;;;;;;;3.13;100.00;98767.53;7398810;19;20768;-58
2023/01/16 09:00:10;;;;;;;4.40;1.47;;;;;;;3.14;100.00;98746.34;7393064;19;21020;-61
2023/01/16 09:02:39;;;;;;;12.07;2.10;;;;;;;3.23;100.00;98744.16;7398432;19;20403;-62
2023/01/16 09:05:10;;;;;;;3.70;1.40;;;;;;;3.24;100.00;98740.78;7391890;19;20465;-61
2023/01/16 09:07:39;;;;;;;5.50;2.17;;;;;;;3.28;100.00;98732.44;7398897;19;20934;-63
2023/01/16 09:10:11;;;;;;;3.67;1.40;;;;;;;3.31;100.00;98735.13;7390913;19;20482;-61
2023/01/16 09:15:25;;;;;;;4.03;1.70;;;;;;;3.09;100.00;98730.88;7391282;19;20454;-62
2023/01/16 09:17:54;;;;;;;7.57;1.70;;;;;;;3.27;100.00;98717.97;7396694;19;20399;-63
2023/01/16 09:20:24;;;;;;;2.63;1.23;;;;;;;3.23;100.00;98714.44;7392317;19;20439;-61
2023/01/16 09:22:59;;;;;;;7.63;1.60;;;;;;;3.17;100.00;98704.00;7395918;19;20423;-62
2023/01/16 09:25:32;;;;;;;7.63;1.50;;;;;;;3.26;100.00;98702.59;7391201;19;20451;-63
2023/01/16 09:28:03;;;;;;;5.57;1.60;;;;;;;3.33;100.00;98708.00;7396604;19;20399;-64
2023/01/16 09:30:35;;;;;;;5.00;1.43;;;;;;;3.32;100.00;98696.06;7391201;19;20448;-62
2023/01/16 09:33:05;;;;;;;2.97;1.60;;;;;;;3.36;100.00;98685.19;7395857;19;20933;-62
2023/01/16 09:35:35;;;;;;;4.80;1.80;;;;;;;3.35;100.00;98680.03;7389982;19;20462;-63
2023/01/16 09:38:04;;;;;;;4.37;1.40;;;;;;;3.21;100.00;98679.50;7396391;19;20399;-63
2023/01/16 09:40:34;;;;;;;11.00;4.20;;;;;;;3.28;100.00;98676.34;7390098;19;20450;-62
2023/01/16 09:46:01;;;;;;;7.57;1.50;;;;;;;3.37;100.00;98670.75;7393841;19;20460;-62
2023/01/16 09:48:34;;;;;;;5.43;1.63;;;;;;;3.36;100.00;98664.78;7393162;19;20777;-63
2023/01/16 09:51:05;;;;;;;6.20;2.50;;;;;;;3.40;100.00;98658.13;7390921;19;20412;-62
2023/01/16 09:59:20;;;;;;;12.67;5.60;;;;;;;4.13;100.00;98645.34;7391541;19;20954;-63
2023/01/16 10:01:55;;;;;;;14.87;7.17;;;;;;;3.96;100.00;98646.47;7394431;19;20934;-63
2023/01/16 10:04:26;;;;;;;5.87;2.63;;;;;;;3.81;100.00;98637.47;7391559;19;20434;-62
2023/01/16 10:07:05;;;;;;;15.07;6.60;;;;;;;3.89;100.00;98642.81;7394982;19;20403;-62
2023/01/16 10:09:39;;;;;;;8.30;3.53;;;;;;;3.70;100.00;98646.41;7390972;19;20437;-62
2023/01/16 10:12:12;;;;;;;8.43;2.63;;;;;;;3.72;100.00;98638.00;7394451;19;20812;-61
2023/01/16 10:14:51;;;;;;;8.53;3.77;;;;;;;3.75;100.00;98632.16;7390605;19;20443;-60
2023/01/16 10:17:31;;;;;;;8.77;2.50;;;;;;;3.77;100.00;98635.63;7394515;19;20765;-62
2023/01/16 10:20:29;;;;;;;5.10;1.83;;;;;;;3.78;100.00;98627.13;7389807;19;20431;-62
2023/01/16 10:23:05;;;;;;;3.90;0.80;;;;;;;3.73;100.00;98621.00;7394012;19;20411;-63
2023/01/16 10:25:43;;;;;;;4.33;1.60;;;;;;;3.68;100.00;98625.09;7389786;19;20470;-63
2023/01/16 10:28:24;;;;;;;5.47;1.67;;;;;;;3.80;100.00;98625.53;7395591;19;20399;-62
2023/01/16 10:30:57;;;;;;;4.43;1.27;;;;;;;3.87;100.00;98607.06;7391678;19;20467;-62
2023/01/16 10:33:32;;;;;;;5.37;1.20;;;;;;;3.83;100.00;98614.53;7391903;19;20522;-62
2023/01/16 10:36:12;;;;;;;3.80;1.67;;;;;;;3.85;100.00;98608.69;7392649;19;20781;-62
2023/01/16 10:38:45;;;;;;;8.57;2.33;;;;;;;3.82;100.00;98598.38;7392809;19;20399;-61
2023/01/16 10:49:29;;;;;;;3.43;1.30;;;;;;;3.68;100.00;98579.19;7388902;19;20407;-62
2023/01/16 10:52:00;;;;;;;4.47;1.30;;;;;;;3.71;100.00;98574.19;7391729;19;20419;-63
2023/01/16 10:54:29;;;;;;;5.10;1.50;;;;;;;3.77;100.00;98577.81;7389185;19;20958;-63
2023/01/16 10:57:03;;;;;;;4.37;1.37;;;;;;;3.94;100.00;98566.44;7393299;19;20426;-62
2023/01/16 10:59:34;;;;;;;6.27;1.60;;;;;;;4.16;100.00;98558.66;7390096;19;20415;-63
2023/01/16 11:02:12;;;;;;;9.23;1.83;;;;;;;4.04;100.00;98558.25;7393110;19;20411;-62
2023/01/16 11:04:44;;;;;;;14.77;3.70;;;;;;;4.11;100.00;98547.44;7390512;19;20450;-64
2023/01/16 11:07:19;;;;;;;3.50;1.10;;;;;;;4.15;100.00;98543.31;7393335;19;20423;-61
2023/01/16 11:09:48;;;;;;;3.90;1.30;;;;;;;4.15;100.00;98540.75;7388862;19;20430;-63
2023/01/16 11:20:45;;;;;;;5.87;1.47;;;;;;;4.13;100.00;98517.72;7389641;19;20438;-62
2023/01/16 11:23:19;;;;;;;3.90;1.70;;;;;;;4.26;100.00;98497.69;7392662;19;20419;-63
2023/01/16 11:25:51;;;;;;;5.30;1.73;;;;;;;4.32;100.00;98493.63;7388629;19;20445;-63
2023/01/16 11:28:23;;;;;;;6.30;1.60;;;;;;;4.40;100.00;98500.66;7392424;19;20406;-59
2023/01/16 11:30:55;;;;;;;5.10;1.80;;;;;;;4.34;100.00;98486.03;7392184;19;20470;-62
2023/01/16 11:33:27;;;;;;;9.37;2.03;;;;;;;4.36;100.00;98489.47;7392285;19;20403;-62
2023/01/16 11:36:01;;;;;;;3.67;1.60;;;;;;;4.32;100.00;98469.81;7390509;19;20453;-62
2023/01/16 11:38:35;;;;;;;6.50;1.37;;;;;;;4.21;100.00;98466.94;7390730;19;20400;-62
2023/01/16 11:41:07;;;;;;;7.27;1.17;;;;;;;4.32;100.00;98464.69;7391870;19;20391;-63
2023/01/16 11:46:36;;;;;;;2.40;1.10;;;;;;;4.35;100.00;98448.59;7389197;19;20453;-64
2023/01/16 11:49:07;;;;;;;4.00;1.27;;;;;;;4.43;100.00;98432.69;7387620;19;20415;-62
2023/01/16 11:51:39;;;;;;;7.10;1.40;;;;;;;4.39;100.00;98435.97;7390750;19;20403;-61
2023/01/16 11:54:15;;;;;;;5.37;1.47;;;;;;;4.43;100.00;98422.47;7387848;19;20411;-64
2023/01/16 11:56:56;;;;;;;3.30;1.23;;;;;;;4.52;100.00;98414.19;7389627;19;20457;-62
2023/01/16 11:59:40;;;;;;;3.63;1.40;;;;;;;4.46;100.00;98417.44;7395259;19;20422;-63
2023/01/16 12:02:21;;;;;;;2.63;1.00;;;;;;;4.44;100.00;98411.44;7399198;19;20763;-61
2023/01/16 12:07:47;;;;;;;2.43;1.10;;;;;;;4.55;100.00;98395.53;7398910;19;21387;-62
2023/01/16 12:10:33;;;;;;;5.03;2.23;;;;;;;4.50;100.00;98376.69;7396773;19;20438;-63
2023/01/16 12:16:03;;;;;;;6.30;1.57;;;;;;;4.57;100.00;98361.56;7393458;19;20438;-62
2023/01/16 12:18:39;;;;;;;3.00;1.30;;;;;;;4.59;100.00;98361.59;7397404;19;20395;-65
2023/01/16 12:21:23;;;;;;;6.63;1.50;;;;;;;4.58;100.00;98342.00;7398464;19;20403;-61
2023/01/16 12:24:09;;;;;;;10.60;1.43;;;;;;;4.65;100.00;98345.56;7393709;19;20415;-63
2023/01/16 12:26:47;;;;;;;9.00;1.80;;;;;;;4.66;100.00;98337.94;7397362;19;20434;-64
2023/01/16 12:29:25;;;;;;;5.03;1.80;;;;;;;4.65;100.00;98338.78;7395862;19;20475;-63
2023/01/16 12:32:08;;;;;;;6.90;1.60;;;;;;;4.62;100.00;98318.28;7396336;19;20420;-63
2023/01/16 12:34:55;;;;;;;4.47;1.37;;;;;;;4.60;100.00;98319.91;7395512;19;21040;-65
2023/01/16 12:37:40;;;;;;;4.20;1.20;;;;;;;4.58;100.00;98311.34;7398656;19;20411;-65
2023/01/16 12:40:24;;;;;;;5.37;1.20;;;;;;;4.59;100.00;98302.84;7393852;19;20446;-65
2023/01/16 12:45:45;;;;;;;2.80;1.27;;;;;;;4.55;100.00;98295.94;7393478;19;20467;-65
2023/01/16 12:48:32;;;;;;;2.80;1.40;;;;;;;4.49;100.00;98277.88;7398003;19;20406;-64
2023/01/16 12:51:12;;;;;;;5.00;1.50;;;;;;;4.53;100.00;98272.94;7396564;19;20435;-64
2023/01/16 12:54:01;;;;;;;5.50;1.40;;;;;;;4.49;100.00;98265.13;7394955;19;20407;-65
2023/01/16 12:56:41;;;;;;;2.47;1.13;;;;;;;4.51;100.00;98258.38;7395991;19;20446;-64
2023/01/16 12:59:16;;;;;;;6.97;1.30;;;;;;;4.52;100.00;98260.97;7393914;19;20425;-64